sensor_id;sensor_type;location;lat;lon;timestamp;pressure;altitude;pressure_sealevel;temperature;humidity
76337;BME280;65157;50.082;18.178;2023-05-29T00:01:34;99400.77;;;13.03;59.76
76337;BME280;65157;50.082;18.178;2023-05-29T00:04:01;99399.72;;;12.99;60.17
76337;BME280;65157;50.082;18.178;2023-05-29T00:06:27;99398.64;;;12.96;60.04
76337;BME280;65157;50.082;18.178;2023-05-29T00:08:54;99393.54;;;12.92;60.19
76337;BME280;65157;50.082;18.178;2023-05-29T00:11:21;99397.45;;;12.88;60.20
76337;BME280;65157;50.082;18.178;2023-05-29T00:13:47;99404.05;;;12.84;60.07
76337;BME280;65157;50.082;18.178;2023-05-29T00:16:14;99399.02;;;12.81;60.20
76337;BME280;65157;50.082;18.178;2023-05-29T00:18:40;99394.82;;;12.80;60.11
76337;BME280;65157;50.082;18.178;2023-05-29T00:21:07;99395.25;;;12.79;59.62
76337;BME280;65157;50.082;18.178;2023-05-29T00:23:34;99394.05;;;12.78;59.93
76337;BME280;65157;50.082;18.178;2023-05-29T00:26:00;99398.52;;;12.77;59.84
76337;BME280;65157;50.082;18.178;2023-05-29T00:28:27;99389.48;;;12.70;59.82
76337;BME280;65157;50.082;18.178;2023-05-29T00:30:54;99396.80;;;12.73;60.05
76337;BME280;65157;50.082;18.178;2023-05-29T00:33:20;99398.68;;;12.71;59.84
76337;BME280;65157;50.082;18.178;2023-05-29T00:35:47;99400.02;;;12.68;59.91
76337;BME280;65157;50.082;18.178;2023-05-29T00:38:13;99398.38;;;12.66;60.13
76337;BME280;65157;50.082;18.178;2023-05-29T00:40:40;99398.83;;;12.64;60.07
76337;BME280;65157;50.082;18.178;2023-05-29T00:43:07;99394.39;;;12.60;60.38
76337;BME280;65157;50.082;18.178;2023-05-29T00:45:33;99395.65;;;12.56;60.57
76337;BME280;65157;50.082;18.178;2023-05-29T00:48:00;99397.78;;;12.53;60.64
76337;BME280;65157;50.082;18.178;2023-05-29T00:50:27;99390.48;;;12.42;60.66
76337;BME280;65157;50.082;18.178;2023-05-29T00:52:53;99391.69;;;12.43;60.55
76337;BME280;65157;50.082;18.178;2023-05-29T00:55:20;99388.84;;;12.39;60.60
76337;BME280;65157;50.082;18.178;2023-05-29T00:57:47;99390.14;;;12.35;60.82
76337;BME280;65157;50.082;18.178;2023-05-29T01:00:14;99389.27;;;12.31;60.78
76337;BME280;65157;50.082;18.178;2023-05-29T01:02:41;99393.77;;;12.25;61.06
76337;BME280;65157;50.082;18.178;2023-05-29T01:05:09;99395.54;;;12.18;61.38
76337;BME280;65157;50.082;18.178;2023-05-29T01:07:35;99395.33;;;12.11;61.64
76337;BME280;65157;50.082;18.178;2023-05-29T01:10:02;99392.23;;;12.05;61.81
76337;BME280;65157;50.082;18.178;2023-05-29T01:16:08;99394.84;;;11.95;62.30
76337;BME280;65157;50.082;18.178;2023-05-29T01:18:41;99394.89;;;11.89;62.45
76337;BME280;65157;50.082;18.178;2023-05-29T01:21:16;99395.52;;;11.83;62.58
76337;BME280;65157;50.082;18.178;2023-05-29T01:23:52;99384.17;;;11.72;62.46
76337;BME280;65157;50.082;18.178;2023-05-29T01:29:06;99389.73;;;11.62;62.95
76337;BME280;65157;50.082;18.178;2023-05-29T01:31:34;99398.61;;;11.61;62.94
76337;BME280;65157;50.082;18.178;2023-05-29T01:34:01;99399.81;;;11.58;63.05
76337;BME280;65157;50.082;18.178;2023-05-29T01:36:28;99401.46;;;11.52;63.22
76337;BME280;65157;50.082;18.178;2023-05-29T01:38:56;99404.64;;;11.45;63.43
76337;BME280;65157;50.082;18.178;2023-05-29T01:41:24;99395.08;;;11.33;63.83
76337;BME280;65157;50.082;18.178;2023-05-29T01:43:53;99401.88;;;11.31;63.99
76337;BME280;65157;50.082;18.178;2023-05-29T01:46:21;99405.11;;;11.25;64.19
76337;BME280;65157;50.082;18.178;2023-05-29T01:48:48;99403.88;;;11.21;64.57
76337;BME280;65157;50.082;18.178;2023-05-29T01:51:15;99403.72;;;11.16;64.62
76337;BME280;65157;50.082;18.178;2023-05-29T01:53:42;99396.10;;;11.09;64.59
76337;BME280;65157;50.082;18.178;2023-05-29T01:56:09;99407.20;;;11.10;64.62
76337;BME280;65157;50.082;18.178;2023-05-29T01:58:38;99407.11;;;11.07;64.74
76337;BME280;65157;50.082;18.178;2023-05-29T02:01:06;99404.77;;;11.04;64.83
76337;BME280;65157;50.082;18.178;2023-05-29T02:03:33;99403.45;;;11.03;64.90
76337;BME280;65157;50.082;18.178;2023-05-29T02:06:00;99403.74;;;10.99;65.19
76337;BME280;65157;50.082;18.178;2023-05-29T02:08:27;99406.80;;;10.94;65.56
76337;BME280;65157;50.082;18.178;2023-05-29T02:10:54;99399.61;;;10.84;65.66
76337;BME280;65157;50.082;18.178;2023-05-29T02:13:20;99405.76;;;10.85;65.77
76337;BME280;65157;50.082;18.178;2023-05-29T02:15:47;99407.59;;;10.84;65.70
76337;BME280;65157;50.082;18.178;2023-05-29T02:18:15;99407.63;;;10.82;65.53
76337;BME280;65157;50.082;18.178;2023-05-29T02:20:41;99408.59;;;10.81;65.77
76337;BME280;65157;50.082;18.178;2023-05-29T02:23:09;99406.09;;;10.76;65.95
76337;BME280;65157;50.082;18.178;2023-05-29T02:25:35;99407.69;;;10.72;66.02
76337;BME280;65157;50.082;18.178;2023-05-29T02:28:03;99402.37;;;10.68;66.33
76337;BME280;65157;50.082;18.178;2023-05-29T02:30:30;99403.57;;;10.65;66.47
76337;BME280;65157;50.082;18.178;2023-05-29T02:32:57;99400.74;;;10.60;66.64
76337;BME280;65157;50.082;18.178;2023-05-29T02:35:23;99397.38;;;10.56;66.78
76337;BME280;65157;50.082;18.178;2023-05-29T02:37:50;99398.95;;;10.52;66.96
76337;BME280;65157;50.082;18.178;2023-05-29T02:40:18;99400.11;;;10.50;66.87
76337;BME280;65157;50.082;18.178;2023-05-29T02:42:46;99397.73;;;10.47;67.03
76337;BME280;65157;50.082;18.178;2023-05-29T02:45:13;99395.91;;;10.45;66.86
76337;BME280;65157;50.082;18.178;2023-05-29T02:47:39;99390.17;;;10.42;66.97
76337;BME280;65157;50.082;18.178;2023-05-29T02:50:09;99387.85;;;10.43;66.95
76337;BME280;65157;50.082;18.178;2023-05-29T02:52:36;99391.23;;;10.43;66.99
76337;BME280;65157;50.082;18.178;2023-05-29T02:55:04;99380.82;;;10.38;67.01
76337;BME280;65157;50.082;18.178;2023-05-29T02:57:30;99387.67;;;10.43;67.14
76337;BME280;65157;50.082;18.178;2023-05-29T02:59:57;99389.27;;;10.43;67.31
76337;BME280;65157;50.082;18.178;2023-05-29T03:02:24;99384.65;;;10.44;67.28
76337;BME280;65157;50.082;18.178;2023-05-29T03:04:51;99386.57;;;10.45;67.21
76337;BME280;65157;50.082;18.178;2023-05-29T03:07:18;99387.21;;;10.46;67.34
76337;BME280;65157;50.082;18.178;2023-05-29T03:09:45;99384.73;;;10.46;67.35
76337;BME280;65157;50.082;18.178;2023-05-29T03:12:11;99385.23;;;10.47;67.67
76337;BME280;65157;50.082;18.178;2023-05-29T03:14:38;99386.43;;;10.47;67.42
76337;BME280;65157;50.082;18.178;2023-05-29T03:17:05;99388.21;;;10.48;67.79
76337;BME280;65157;50.082;18.178;2023-05-29T03:19:34;99381.54;;;10.42;67.96
76337;BME280;65157;50.082;18.178;2023-05-29T03:22:00;99386.89;;;10.45;68.11
76337;BME280;65157;50.082;18.178;2023-05-29T03:24:27;99390.63;;;10.44;68.13
76337;BME280;65157;50.082;18.178;2023-05-29T03:26:54;99380.74;;;10.40;68.22
76337;BME280;65157;50.082;18.178;2023-05-29T03:29:20;99386.95;;;10.44;68.41
76337;BME280;65157;50.082;18.178;2023-05-29T03:31:47;99382.86;;;10.40;68.37
76337;BME280;65157;50.082;18.178;2023-05-29T03:34:14;99390.30;;;10.44;68.26
76337;BME280;65157;50.082;18.178;2023-05-29T03:36:40;99387.04;;;10.45;68.36
76337;BME280;65157;50.082;18.178;2023-05-29T03:39:07;99385.60;;;10.46;68.49
76337;BME280;65157;50.082;18.178;2023-05-29T03:41:34;99387.11;;;10.48;68.66
76337;BME280;65157;50.082;18.178;2023-05-29T03:44:01;99390.16;;;10.51;68.84
76337;BME280;65157;50.082;18.178;2023-05-29T03:46:27;99392.42;;;10.53;68.96
76337;BME280;65157;50.082;18.178;2023-05-29T03:48:54;99394.28;;;10.54;69.17
76337;BME280;65157;50.082;18.178;2023-05-29T03:51:21;99391.45;;;10.54;68.91
76337;BME280;65157;50.082;18.178;2023-05-29T03:53:47;99395.88;;;10.59;68.81
76337;BME280;65157;50.082;18.178;2023-05-29T03:56:14;99397.91;;;10.60;68.34
76337;BME280;65157;50.082;18.178;2023-05-29T03:58:41;99401.38;;;10.62;68.15
76337;BME280;65157;50.082;18.178;2023-05-29T04:01:07;99399.66;;;10.61;68.53
76337;BME280;65157;50.082;18.178;2023-05-29T04:03:34;99394.39;;;10.52;68.65
76337;BME280;65157;50.082;18.178;2023-05-29T04:06:02;99402.80;;;10.53;68.70
76337;BME280;65157;50.082;18.178;2023-05-29T04:08:28;99396.85;;;10.47;68.63
76337;BME280;65157;50.082;18.178;2023-05-29T04:10:55;99406.30;;;10.49;68.89
76337;BME280;65157;50.082;18.178;2023-05-29T04:13:22;99409.95;;;10.46;68.98
76337;BME280;65157;50.082;18.178;2023-05-29T04:15:49;99408.22;;;10.45;68.95
76337;BME280;65157;50.082;18.178;2023-05-29T04:18:15;99398.13;;;10.42;69.21
76337;BME280;65157;50.082;18.178;2023-05-29T04:20:42;99407.91;;;10.49;69.18
76337;BME280;65157;50.082;18.178;2023-05-29T04:23:09;99409.77;;;10.51;69.38
76337;BME280;65157;50.082;18.178;2023-05-29T04:25:35;99418.66;;;10.54;69.58
76337;BME280;65157;50.082;18.178;2023-05-29T04:28:02;99413.96;;;10.52;69.78
76337;BME280;65157;50.082;18.178;2023-05-29T04:30:29;99421.20;;;10.52;69.90
76337;BME280;65157;50.082;18.178;2023-05-29T04:32:55;99420.15;;;10.52;70.00
76337;BME280;65157;50.082;18.178;2023-05-29T04:35:22;99429.45;;;10.58;69.54
76337;BME280;65157;50.082;18.178;2023-05-29T04:37:49;99428.57;;;10.66;69.78
76337;BME280;65157;50.082;18.178;2023-05-29T04:40:15;99428.05;;;10.75;69.56
76337;BME280;65157;50.082;18.178;2023-05-29T04:42:42;99429.60;;;10.85;69.46
76337;BME280;65157;50.082;18.178;2023-05-29T04:45:09;99428.02;;;10.94;69.78
76337;BME280;65157;50.082;18.178;2023-05-29T04:47:36;99421.16;;;11.01;70.43
76337;BME280;65157;50.082;18.178;2023-05-29T04:50:02;99418.23;;;11.12;70.24
76337;BME280;65157;50.082;18.178;2023-05-29T04:52:29;99424.16;;;11.22;69.94
76337;BME280;65157;50.082;18.178;2023-05-29T04:54:57;99423.96;;;11.31;69.89
76337;BME280;65157;50.082;18.178;2023-05-29T04:57:23;99424.63;;;11.40;69.80
76337;BME280;65157;50.082;18.178;2023-05-29T04:59:50;99424.92;;;11.50;69.68
76337;BME280;65157;50.082;18.178;2023-05-29T05:02:16;99430.74;;;11.62;69.47
76337;BME280;65157;50.082;18.178;2023-05-29T05:04:43;99427.77;;;11.74;69.77
76337;BME280;65157;50.082;18.178;2023-05-29T05:07:10;99432.55;;;11.86;70.03
76337;BME280;65157;50.082;18.178;2023-05-29T05:09:37;99428.20;;;12.00;69.59
76337;BME280;65157;50.082;18.178;2023-05-29T05:12:04;99417.92;;;12.12;69.31
76337;BME280;65157;50.082;18.178;2023-05-29T05:14:30;99425.55;;;12.34;69.02
76337;BME280;65157;50.082;18.178;2023-05-29T05:16:57;99422.98;;;12.51;68.88
76337;BME280;65157;50.082;18.178;2023-05-29T05:19:23;99424.66;;;12.68;68.79
76337;BME280;65157;50.082;18.178;2023-05-29T05:21:50;99414.92;;;12.83;68.12
76337;BME280;65157;50.082;18.178;2023-05-29T05:24:17;99409.69;;;13.02;68.02
76337;BME280;65157;50.082;18.178;2023-05-29T05:26:43;99419.86;;;13.23;68.15
76337;BME280;65157;50.082;18.178;2023-05-29T05:29:10;99416.58;;;13.38;67.75
76337;BME280;65157;50.082;18.178;2023-05-29T05:31:37;99415.26;;;13.50;68.08
76337;BME280;65157;50.082;18.178;2023-05-29T05:34:04;99421.77;;;13.69;67.87
76337;BME280;65157;50.082;18.178;2023-05-29T05:36:30;99428.92;;;13.90;67.94
76337;BME280;65157;50.082;18.178;2023-05-29T05:38:57;99429.27;;;14.07;67.56
76337;BME280;65157;50.082;18.178;2023-05-29T05:41:23;99418.02;;;14.19;66.90
76337;BME280;65157;50.082;18.178;2023-05-29T05:43:50;99431.90;;;14.47;66.30
76337;BME280;65157;50.082;18.178;2023-05-29T05:46:17;99433.89;;;14.66;66.36
76337;BME280;65157;50.082;18.178;2023-05-29T05:48:43;99428.34;;;14.86;66.07
76337;BME280;65157;50.082;18.178;2023-05-29T05:51:10;99429.70;;;15.05;65.27
76337;BME280;65157;50.082;18.178;2023-05-29T05:53:38;99429.20;;;15.26;64.77
76337;BME280;65157;50.082;18.178;2023-05-29T05:56:05;99432.73;;;15.48;64.69
76337;BME280;65157;50.082;18.178;2023-05-29T05:58:32;99429.64;;;15.63;64.24
76337;BME280;65157;50.082;18.178;2023-05-29T06:00:59;99433.40;;;15.87;63.06
76337;BME280;65157;50.082;18.178;2023-05-29T06:03:25;99431.70;;;16.03;62.09
76337;BME280;65157;50.082;18.178;2023-05-29T06:05:52;99436.06;;;16.18;61.90
76337;BME280;65157;50.082;18.178;2023-05-29T06:08:18;99434.31;;;16.38;61.28
76337;BME280;65157;50.082;18.178;2023-05-29T06:10:45;99430.09;;;16.57;60.46
76337;BME280;65157;50.082;18.178;2023-05-29T06:13:12;99432.62;;;16.76;59.99
76337;BME280;65157;50.082;18.178;2023-05-29T06:15:39;99433.16;;;16.95;59.89
76337;BME280;65157;50.082;18.178;2023-05-29T06:18:05;99433.67;;;17.14;59.29
76337;BME280;65157;50.082;18.178;2023-05-29T06:20:32;99430.58;;;17.23;58.21
76337;BME280;65157;50.082;18.178;2023-05-29T06:22:58;99441.73;;;17.40;58.41
76337;BME280;65157;50.082;18.178;2023-05-29T06:25:25;99441.30;;;17.57;58.06
76337;BME280;65157;50.082;18.178;2023-05-29T06:27:52;99444.84;;;17.76;58.00
76337;BME280;65157;50.082;18.178;2023-05-29T06:30:18;99443.61;;;17.93;57.02
76337;BME280;65157;50.082;18.178;2023-05-29T06:32:45;99445.35;;;18.07;56.57
76337;BME280;65157;50.082;18.178;2023-05-29T06:35:11;99443.89;;;18.20;56.18
76337;BME280;65157;50.082;18.178;2023-05-29T06:37:38;99442.70;;;18.34;55.80
76337;BME280;65157;50.082;18.178;2023-05-29T06:40:05;99433.84;;;18.38;55.23
76337;BME280;65157;50.082;18.178;2023-05-29T06:42:32;99440.25;;;18.49;55.12
76337;BME280;65157;50.082;18.178;2023-05-29T06:45:01;99444.25;;;18.61;55.54
76337;BME280;65157;50.082;18.178;2023-05-29T06:47:28;99447.10;;;18.76;55.39
76337;BME280;65157;50.082;18.178;2023-05-29T06:49:54;99450.83;;;18.90;54.29
76337;BME280;65157;50.082;18.178;2023-05-29T06:52:21;99454.59;;;19.03;53.56
76337;BME280;65157;50.082;18.178;2023-05-29T06:54:48;99462.89;;;19.18;53.20
76337;BME280;65157;50.082;18.178;2023-05-29T06:57:14;99464.66;;;19.28;53.45
76337;BME280;65157;50.082;18.178;2023-05-29T06:59:41;99463.85;;;19.44;52.96
76337;BME280;65157;50.082;18.178;2023-05-29T07:02:08;99466.69;;;19.58;53.23
76337;BME280;65157;50.082;18.178;2023-05-29T07:04:35;99457.45;;;19.74;52.58
76337;BME280;65157;50.082;18.178;2023-05-29T07:07:02;99461.09;;;19.92;52.07
76337;BME280;65157;50.082;18.178;2023-05-29T07:09:29;99460.30;;;20.04;52.33
76337;BME280;65157;50.082;18.178;2023-05-29T07:11:55;99452.85;;;20.14;52.22
76337;BME280;65157;50.082;18.178;2023-05-29T07:14:22;99461.02;;;20.31;51.37
76337;BME280;65157;50.082;18.178;2023-05-29T07:16:49;99462.38;;;20.44;51.02
76337;BME280;65157;50.082;18.178;2023-05-29T07:19:15;99459.70;;;20.57;51.07
76337;BME280;65157;50.082;18.178;2023-05-29T07:21:42;99456.42;;;20.69;50.18
76337;BME280;65157;50.082;18.178;2023-05-29T07:24:08;99457.51;;;20.80;51.03
76337;BME280;65157;50.082;18.178;2023-05-29T07:26:35;99456.05;;;20.98;48.85
76337;BME280;65157;50.082;18.178;2023-05-29T07:29:02;99450.99;;;20.94;47.76
76337;BME280;65157;50.082;18.178;2023-05-29T07:31:29;99454.73;;;20.94;48.19
76337;BME280;65157;50.082;18.178;2023-05-29T07:33:55;99452.88;;;21.08;47.88
76337;BME280;65157;50.082;18.178;2023-05-29T07:36:22;99449.57;;;21.18;47.96
76337;BME280;65157;50.082;18.178;2023-05-29T07:38:49;99449.95;;;21.30;48.87
76337;BME280;65157;50.082;18.178;2023-05-29T07:41:15;99441.00;;;21.43;48.15
76337;BME280;65157;50.082;18.178;2023-05-29T07:43:42;99451.67;;;21.57;47.45
76337;BME280;65157;50.082;18.178;2023-05-29T07:46:09;99453.16;;;21.67;47.75
76337;BME280;65157;50.082;18.178;2023-05-29T07:48:36;99449.07;;;21.81;48.04
76337;BME280;65157;50.082;18.178;2023-05-29T07:51:03;99448.62;;;22.06;48.16
76337;BME280;65157;50.082;18.178;2023-05-29T07:53:29;99454.73;;;22.28;47.75
76337;BME280;65157;50.082;18.178;2023-05-29T07:55:56;99453.25;;;22.48;47.47
76337;BME280;65157;50.082;18.178;2023-05-29T07:58:22;99453.80;;;22.65;46.80
76337;BME280;65157;50.082;18.178;2023-05-29T08:00:49;99457.68;;;22.78;46.25
76337;BME280;65157;50.082;18.178;2023-05-29T08:03:16;99457.20;;;22.86;46.19
76337;BME280;65157;50.082;18.178;2023-05-29T08:05:42;99457.85;;;22.92;46.25
76337;BME280;65157;50.082;18.178;2023-05-29T08:08:11;99447.70;;;22.97;45.89
76337;BME280;65157;50.082;18.178;2023-05-29T08:10:39;99453.27;;;23.11;45.68
76337;BME280;65157;50.082;18.178;2023-05-29T08:13:05;99459.65;;;23.28;44.91
76337;BME280;65157;50.082;18.178;2023-05-29T08:15:32;99457.84;;;23.42;45.20
76337;BME280;65157;50.082;18.178;2023-05-29T08:17:59;99460.28;;;23.62;45.33
76337;BME280;65157;50.082;18.178;2023-05-29T08:20:25;99459.89;;;23.82;45.27
76337;BME280;65157;50.082;18.178;2023-05-29T08:22:52;99458.40;;;24.01;45.05
76337;BME280;65157;50.082;18.178;2023-05-29T08:25:18;99457.06;;;24.21;44.24
76337;BME280;65157;50.082;18.178;2023-05-29T08:27:45;99456.14;;;24.36;43.85
76337;BME280;65157;50.082;18.178;2023-05-29T08:30:12;99460.61;;;24.50;43.48
76337;BME280;65157;50.082;18.178;2023-05-29T08:32:39;99446.17;;;24.55;43.18
76337;BME280;65157;50.082;18.178;2023-05-29T08:35:06;99451.88;;;24.75;43.38
76337;BME280;65157;50.082;18.178;2023-05-29T08:37:33;99451.45;;;24.96;42.86
76337;BME280;65157;50.082;18.178;2023-05-29T08:40:00;99457.59;;;25.13;42.31
76337;BME280;65157;50.082;18.178;2023-05-29T08:42:29;99452.55;;;25.26;41.72
76337;BME280;65157;50.082;18.178;2023-05-29T08:45:00;99455.48;;;25.27;41.95
76337;BME280;65157;50.082;18.178;2023-05-29T08:47:33;99452.92;;;25.39;41.46
76337;BME280;65157;50.082;18.178;2023-05-29T08:50:01;99451.63;;;25.50;41.10
76337;BME280;65157;50.082;18.178;2023-05-29T08:52:29;99451.02;;;25.59;39.67
76337;BME280;65157;50.082;18.178;2023-05-29T08:54:57;99450.96;;;25.65;38.91
76337;BME280;65157;50.082;18.178;2023-05-29T08:57:28;99451.20;;;25.66;39.71
76337;BME280;65157;50.082;18.178;2023-05-29T08:59:56;99450.30;;;25.77;39.76
76337;BME280;65157;50.082;18.178;2023-05-29T09:02:23;99445.20;;;25.86;39.43
76337;BME280;65157;50.082;18.178;2023-05-29T09:04:50;99447.86;;;25.97;38.88
76337;BME280;65157;50.082;18.178;2023-05-29T09:07:17;99440.09;;;25.95;38.08
76337;BME280;65157;50.082;18.178;2023-05-29T09:09:47;99452.12;;;25.95;37.57
76337;BME280;65157;50.082;18.178;2023-05-29T09:12:15;99453.11;;;25.95;38.04
76337;BME280;65157;50.082;18.178;2023-05-29T09:14:42;99443.84;;;25.99;37.48
76337;BME280;65157;50.082;18.178;2023-05-29T09:17:10;99442.16;;;25.93;36.81
76337;BME280;65157;50.082;18.178;2023-05-29T09:19:37;99436.59;;;25.78;36.96
76337;BME280;65157;50.082;18.178;2023-05-29T09:22:12;99446.02;;;25.83;37.92
76337;BME280;65157;50.082;18.178;2023-05-29T09:24:39;99439.38;;;25.88;37.68
76337;BME280;65157;50.082;18.178;2023-05-29T09:27:06;99439.92;;;26.00;38.08
76337;BME280;65157;50.082;18.178;2023-05-29T09:29:33;99432.05;;;26.12;38.01
76337;BME280;65157;50.082;18.178;2023-05-29T09:32:07;99441.74;;;26.26;37.67
76337;BME280;65157;50.082;18.178;2023-05-29T09:34:34;99439.23;;;26.26;36.48
76337;BME280;65157;50.082;18.178;2023-05-29T09:37:05;99444.14;;;26.29;37.70
76337;BME280;65157;50.082;18.178;2023-05-29T09:39:32;99443.96;;;26.47;37.59
76337;BME280;65157;50.082;18.178;2023-05-29T09:41:59;99439.27;;;26.54;37.28
76337;BME280;65157;50.082;18.178;2023-05-29T09:44:26;99440.50;;;26.56;36.83
76337;BME280;65157;50.082;18.178;2023-05-29T09:46:58;99438.17;;;26.50;36.30
76337;BME280;65157;50.082;18.178;2023-05-29T09:49:25;99438.49;;;26.54;37.01
76337;BME280;65157;50.082;18.178;2023-05-29T09:51:56;99434.92;;;26.60;37.26
76337;BME280;65157;50.082;18.178;2023-05-29T09:54:22;99431.73;;;26.70;36.88
76337;BME280;65157;50.082;18.178;2023-05-29T09:56:50;99441.71;;;26.71;36.31
76337;BME280;65157;50.082;18.178;2023-05-29T09:59:17;99437.77;;;26.74;36.22
76337;BME280;65157;50.082;18.178;2023-05-29T10:01:44;99431.92;;;26.75;36.05
76337;BME280;65157;50.082;18.178;2023-05-29T10:04:11;99437.27;;;26.72;35.11
76337;BME280;65157;50.082;18.178;2023-05-29T10:06:44;99431.71;;;26.68;35.09
76337;BME280;65157;50.082;18.178;2023-05-29T10:09:12;99436.50;;;26.74;34.83
76337;BME280;65157;50.082;18.178;2023-05-29T10:11:43;99435.77;;;26.74;35.55
76337;BME280;65157;50.082;18.178;2023-05-29T10:14:16;99435.26;;;26.77;35.50
76337;BME280;65157;50.082;18.178;2023-05-29T10:16:46;99437.81;;;26.87;36.02
76337;BME280;65157;50.082;18.178;2023-05-29T10:19:18;99434.55;;;27.01;34.90
76337;BME280;65157;50.082;18.178;2023-05-29T10:21:46;99432.95;;;27.11;35.42
76337;BME280;65157;50.082;18.178;2023-05-29T10:24:14;99432.84;;;27.20;33.29
76337;BME280;65157;50.082;18.178;2023-05-29T10:26:43;99431.80;;;27.12;34.33
76337;BME280;65157;50.082;18.178;2023-05-29T10:29:42;99425.21;;;27.15;35.88
76337;BME280;65157;50.082;18.178;2023-05-29T10:32:36;99434.80;;;27.42;35.06
76337;BME280;65157;50.082;18.178;2023-05-29T10:37:44;99432.54;;;27.18;34.97
76337;BME280;65157;50.082;18.178;2023-05-29T10:40:12;99431.98;;;27.21;35.20
76337;BME280;65157;50.082;18.178;2023-05-29T10:42:43;99426.55;;;27.31;36.05
76337;BME280;65157;50.082;18.178;2023-05-29T10:45:11;99428.19;;;27.50;35.20
76337;BME280;65157;50.082;18.178;2023-05-29T10:47:38;99422.42;;;27.53;34.42
76337;BME280;65157;50.082;18.178;2023-05-29T10:50:05;99426.09;;;27.56;34.16
76337;BME280;65157;50.082;18.178;2023-05-29T10:52:33;99414.34;;;27.47;34.19
76337;BME280;65157;50.082;18.178;2023-05-29T10:55:01;99417.80;;;27.58;35.47
76337;BME280;65157;50.082;18.178;2023-05-29T10:57:28;99421.05;;;27.78;34.71
76337;BME280;65157;50.082;18.178;2023-05-29T11:00:07;99417.54;;;27.77;33.05
76337;BME280;65157;50.082;18.178;2023-05-29T11:02:38;99419.09;;;27.63;33.85
76337;BME280;65157;50.082;18.178;2023-05-29T11:05:19;99414.36;;;27.65;33.75
76337;BME280;65157;50.082;18.178;2023-05-29T11:07:57;99410.92;;;27.78;34.10
76337;BME280;65157;50.082;18.178;2023-05-29T11:13:25;99405.98;;;27.27;33.01
76337;BME280;65157;50.082;18.178;2023-05-29T11:16:12;99406.48;;;27.22;33.82
76337;BME280;65157;50.082;18.178;2023-05-29T11:18:43;99403.95;;;27.32;33.41
76337;BME280;65157;50.082;18.178;2023-05-29T11:24:26;99399.10;;;27.54;32.32
76337;BME280;65157;50.082;18.178;2023-05-29T11:26:55;99397.59;;;27.33;31.75
76337;BME280;65157;50.082;18.178;2023-05-29T11:29:23;99400.14;;;27.18;32.76
76337;BME280;65157;50.082;18.178;2023-05-29T11:32:12;99404.80;;;27.20;32.86
76337;BME280;65157;50.082;18.178;2023-05-29T11:34:41;99393.48;;;27.29;33.74
76337;BME280;65157;50.082;18.178;2023-05-29T11:37:08;99397.32;;;27.50;32.66
76337;BME280;65157;50.082;18.178;2023-05-29T11:39:38;99400.08;;;27.55;33.13
76337;BME280;65157;50.082;18.178;2023-05-29T11:42:05;99401.48;;;27.63;32.07
76337;BME280;65157;50.082;18.178;2023-05-29T11:44:33;99398.52;;;27.62;32.04
76337;BME280;65157;50.082;18.178;2023-05-29T11:47:01;99395.39;;;27.58;33.47
76337;BME280;65157;50.082;18.178;2023-05-29T11:49:29;99399.72;;;27.72;32.93
76337;BME280;65157;50.082;18.178;2023-05-29T11:54:33;99396.77;;;28.00;32.27
76337;BME280;65157;50.082;18.178;2023-05-29T11:57:01;99393.14;;;28.02;31.93
76337;BME280;65157;50.082;18.178;2023-05-29T11:59:29;99391.60;;;28.01;31.35
76337;BME280;65157;50.082;18.178;2023-05-29T12:01:56;99391.89;;;27.93;31.96
76337;BME280;65157;50.082;18.178;2023-05-29T12:04:22;99395.48;;;27.80;30.58
76337;BME280;65157;50.082;18.178;2023-05-29T12:06:49;99389.64;;;27.64;31.63
76337;BME280;65157;50.082;18.178;2023-05-29T12:09:26;99381.19;;;27.69;32.39
76337;BME280;65157;50.082;18.178;2023-05-29T12:12:03;99386.86;;;27.88;32.08
76337;BME280;65157;50.082;18.178;2023-05-29T12:14:33;99378.81;;;28.00;32.59
76337;BME280;65157;50.082;18.178;2023-05-29T12:16:59;99381.38;;;28.06;32.80
76337;BME280;65157;50.082;18.178;2023-05-29T12:19:26;99373.97;;;28.16;32.20
76337;BME280;65157;50.082;18.178;2023-05-29T12:21:53;99376.83;;;28.16;32.24
76337;BME280;65157;50.082;18.178;2023-05-29T12:24:20;99369.34;;;28.05;29.98
76337;BME280;65157;50.082;18.178;2023-05-29T12:26:47;99372.62;;;27.72;30.88
76337;BME280;65157;50.082;18.178;2023-05-29T12:29:14;99376.56;;;27.46;30.99
76337;BME280;65157;50.082;18.178;2023-05-29T12:31:42;99371.45;;;27.25;31.19
76337;BME280;65157;50.082;18.178;2023-05-29T12:34:11;99363.45;;;27.02;31.82
76337;BME280;65157;50.082;18.178;2023-05-29T12:36:41;99368.11;;;27.07;32.65
76337;BME280;65157;50.082;18.178;2023-05-29T12:39:08;99362.19;;;27.13;32.60
76337;BME280;65157;50.082;18.178;2023-05-29T12:41:36;99362.36;;;27.19;31.85
76337;BME280;65157;50.082;18.178;2023-05-29T12:44:04;99357.37;;;27.05;31.61
76337;BME280;65157;50.082;18.178;2023-05-29T12:46:40;99360.27;;;26.89;31.67
76337;BME280;65157;50.082;18.178;2023-05-29T12:49:17;99359.63;;;26.70;32.55
76337;BME280;65157;50.082;18.178;2023-05-29T12:51:45;99360.48;;;26.69;33.00
76337;BME280;65157;50.082;18.178;2023-05-29T12:54:13;99358.66;;;26.74;33.76
76337;BME280;65157;50.082;18.178;2023-05-29T12:56:40;99354.49;;;26.96;33.72
76337;BME280;65157;50.082;18.178;2023-05-29T12:59:08;99345.14;;;27.05;33.24
76337;BME280;65157;50.082;18.178;2023-05-29T13:01:37;99350.66;;;27.18;32.57
76337;BME280;65157;50.082;18.178;2023-05-29T13:04:07;99351.16;;;26.96;31.49
76337;BME280;65157;50.082;18.178;2023-05-29T13:06:34;99355.40;;;26.79;31.75
76337;BME280;65157;50.082;18.178;2023-05-29T13:09:01;99348.11;;;26.66;31.99
76337;BME280;65157;50.082;18.178;2023-05-29T13:11:28;99353.11;;;26.75;33.05